Etusivu
METAR-TAF:

METAR-TAF

Lentoasemat :

Ljungbyhed, Ruotsi

Leveyspiiri: 56-04N, Pituuspiiri: 013-12E, korkeus merenpinnasta: 43 m

Tämänhetkinen sää

Tämä raportti tehtiin 32 minuuttia sitten, kello 13.50 UTC
Tuuli 8 kn idästä/kaakosta
Lämpötila 1°C
Kosteus 86%
Ilmanpaine 1011 hPa
Näkyvyys 10 km tai enemmän

METAR: ESTL 221350Z AUTO 12008KT 9999NDV BKN014/// 01/M01 Q1011

Aika: 15:22 (14:22 UTC)

Sääennuste

Tämä raportti tehtiin 6 tuntia ja 17 minuuttia sitten, kello 08.05 UTC
Ennuste voimassa 22. päivästä klo 09 UTC - 22. päivään klo 14 UTC
Tuuli 8 kn kaakosta
Näkyvyys 10 km tai enemmän
Hajonneita pilviä 1500 ft:n korkeudessa
Ajoittain
22. päivästä klo 09 UTC - 22. päivään klo 14 UTC
Hajonneita pilviä 1200 ft:n korkeudessa

TAF: ESTL 220805Z 2209/2214 13008KT 9999 BKN015 TEMPO 2209/2214 BKN012

Säähavainnot ja -ennusteet yli 4000 lentoasemalta (METAR- ja TAF-raportit).

Käytössä olevat sääasemat on merkitty karttaan keltaisilla ja punaisilla pisteillä.

Aseta hiiri pisteen päälle nähdäksesi sääaseman nimen.

Klikkaa sitten nähdäksesi säähavainnot ja -ennusteet.

Kartan vaihtaminen: klikkaa mustalla rastilla varustettuja vihreitä pisteitä, niin voit zoomata sisään; viivalla varustettua vihreää pistettä, niin voit zoomata ulos tai vihreitä nuolia, niin pääset viereisille kartoille.


METAR-TAF: